sensor_id;sensor_type;location;lat;lon;timestamp;P1;durP1;ratioP1;P2;durP2;ratioP2
76788;SDS011;65740;52.464;13.446;2022-12-11T00:01:33;6.00;;;5.40;;
76788;SDS011;65740;52.464;13.446;2022-12-11T00:03:59;5.47;;;4.67;;
76788;SDS011;65740;52.464;13.446;2022-12-11T00:06:24;5.00;;;4.00;;
76788;SDS011;65740;52.464;13.446;2022-12-11T00:08:50;5.47;;;4.57;;
76788;SDS011;65740;52.464;13.446;2022-12-11T00:11:17;5.10;;;4.47;;
76788;SDS011;65740;52.464;13.446;2022-12-11T00:13:43;5.27;;;4.77;;
76788;SDS011;65740;52.464;13.446;2022-12-11T00:16:09;4.87;;;4.37;;
76788;SDS011;65740;52.464;13.446;2022-12-11T00:18:35;4.60;;;4.20;;
76788;SDS011;65740;52.464;13.446;2022-12-11T00:21:02;4.73;;;4.33;;
76788;SDS011;65740;52.464;13.446;2022-12-11T00:23:29;5.13;;;4.70;;
76788;SDS011;65740;52.464;13.446;2022-12-11T00:25:55;5.93;;;5.33;;
76788;SDS011;65740;52.464;13.446;2022-12-11T00:28:21;5.47;;;4.60;;
76788;SDS011;65740;52.464;13.446;2022-12-11T00:30:47;4.67;;;4.20;;
76788;SDS011;65740;52.464;13.446;2022-12-11T00:33:13;4.23;;;3.77;;
76788;SDS011;65740;52.464;13.446;2022-12-11T00:35:40;4.70;;;4.30;;
76788;SDS011;65740;52.464;13.446;2022-12-11T00:38:07;4.90;;;4.47;;
76788;SDS011;65740;52.464;13.446;2022-12-11T00:40:36;4.93;;;4.30;;
76788;SDS011;65740;52.464;13.446;2022-12-11T00:43:01;5.63;;;4.30;;
76788;SDS011;65740;52.464;13.446;2022-12-11T00:45:28;5.27;;;4.77;;
76788;SDS011;65740;52.464;13.446;2022-12-11T00:47:53;4.37;;;3.97;;
76788;SDS011;65740;52.464;13.446;2022-12-11T00:50:19;4.27;;;3.87;;
76788;SDS011;65740;52.464;13.446;2022-12-11T00:52:44;5.10;;;4.60;;
76788;SDS011;65740;52.464;13.446;2022-12-11T00:55:10;4.53;;;4.10;;
76788;SDS011;65740;52.464;13.446;2022-12-11T00:57:36;4.50;;;4.10;;
76788;SDS011;65740;52.464;13.446;2022-12-11T01:00:03;4.40;;;3.97;;
76788;SDS011;65740;52.464;13.446;2022-12-11T01:02:31;5.40;;;4.90;;
76788;SDS011;65740;52.464;13.446;2022-12-11T01:04:57;4.70;;;4.27;;
76788;SDS011;65740;52.464;13.446;2022-12-11T01:07:22;4.63;;;4.13;;
76788;SDS011;65740;52.464;13.446;2022-12-11T01:09:48;4.10;;;3.70;;
76788;SDS011;65740;52.464;13.446;2022-12-11T01:12:43;5.00;;;4.27;;
76788;SDS011;65740;52.464;13.446;2022-12-11T01:15:09;5.23;;;4.10;;
76788;SDS011;65740;52.464;13.446;2022-12-11T01:17:35;4.47;;;4.07;;
76788;SDS011;65740;52.464;13.446;2022-12-11T01:20:01;3.90;;;3.50;;
76788;SDS011;65740;52.464;13.446;2022-12-11T01:22:28;4.50;;;4.10;;
76788;SDS011;65740;52.464;13.446;2022-12-11T01:24:54;4.10;;;3.73;;
76788;SDS011;65740;52.464;13.446;2022-12-11T01:27:20;4.20;;;3.80;;
76788;SDS011;65740;52.464;13.446;2022-12-11T01:29:45;3.50;;;3.20;;
76788;SDS011;65740;52.464;13.446;2022-12-11T01:32:11;4.10;;;3.70;;
76788;SDS011;65740;52.464;13.446;2022-12-11T01:34:36;4.10;;;3.77;;
76788;SDS011;65740;52.464;13.446;2022-12-11T01:37:02;4.00;;;3.70;;
76788;SDS011;65740;52.464;13.446;2022-12-11T01:39:28;3.73;;;3.33;;
76788;SDS011;65740;52.464;13.446;2022-12-11T01:41:57;4.67;;;4.17;;
76788;SDS011;65740;52.464;13.446;2022-12-11T01:46:50;4.70;;;4.30;;
76788;SDS011;65740;52.464;13.446;2022-12-11T01:49:16;4.43;;;4.03;;
76788;SDS011;65740;52.464;13.446;2022-12-11T01:51:48;4.13;;;3.73;;
76788;SDS011;65740;52.464;13.446;2022-12-11T01:54:21;4.37;;;3.97;;
76788;SDS011;65740;52.464;13.446;2022-12-11T01:56:50;4.97;;;4.33;;
76788;SDS011;65740;52.464;13.446;2022-12-11T01:59:18;3.97;;;3.63;;
76788;SDS011;65740;52.464;13.446;2022-12-11T02:01:52;4.40;;;4.00;;
76788;SDS011;65740;52.464;13.446;2022-12-11T02:04:23;4.13;;;3.80;;
76788;SDS011;65740;52.464;13.446;2022-12-11T02:06:49;4.07;;;3.30;;
76788;SDS011;65740;52.464;13.446;2022-12-11T02:09:27;3.93;;;3.50;;
76788;SDS011;65740;52.464;13.446;2022-12-11T02:23:12;3.80;;;3.50;;
76788;SDS011;65740;52.464;13.446;2022-12-11T02:30:56;3.30;;;3.00;;
76788;SDS011;65740;52.464;13.446;2022-12-11T02:33:30;4.40;;;4.00;;
76788;SDS011;65740;52.464;13.446;2022-12-11T02:36:03;4.27;;;3.67;;
76788;SDS011;65740;52.464;13.446;2022-12-11T02:38:32;3.40;;;3.10;;
76788;SDS011;65740;52.464;13.446;2022-12-11T02:41:01;3.73;;;3.43;;
76788;SDS011;65740;52.464;13.446;2022-12-11T02:43:29;3.47;;;3.17;;
76788;SDS011;65740;52.464;13.446;2022-12-11T02:45:57;3.47;;;3.17;;
76788;SDS011;65740;52.464;13.446;2022-12-11T02:48:24;3.83;;;3.27;;
76788;SDS011;65740;52.464;13.446;2022-12-11T02:50:50;3.47;;;3.17;;
76788;SDS011;65740;52.464;13.446;2022-12-11T02:53:19;3.37;;;3.07;;
76788;SDS011;65740;52.464;13.446;2022-12-11T02:55:51;3.97;;;3.67;;
76788;SDS011;65740;52.464;13.446;2022-12-11T02:58:25;4.60;;;4.20;;
76788;SDS011;65740;52.464;13.446;2022-12-11T03:00:55;3.53;;;3.23;;
76788;SDS011;65740;52.464;13.446;2022-12-11T03:03:20;4.07;;;3.67;;
76788;SDS011;65740;52.464;13.446;2022-12-11T03:05:47;3.23;;;2.93;;
76788;SDS011;65740;52.464;13.446;2022-12-11T03:08:12;4.27;;;3.27;;
76788;SDS011;65740;52.464;13.446;2022-12-11T03:10:42;3.43;;;3.13;;
76788;SDS011;65740;52.464;13.446;2022-12-11T03:13:08;3.73;;;3.37;;
76788;SDS011;65740;52.464;13.446;2022-12-11T03:18:45;4.17;;;3.77;;
76788;SDS011;65740;52.464;13.446;2022-12-11T03:21:23;5.23;;;3.50;;
76788;SDS011;65740;52.464;13.446;2022-12-11T03:24:04;3.60;;;3.30;;
76788;SDS011;65740;52.464;13.446;2022-12-11T03:26:38;3.40;;;3.10;;
76788;SDS011;65740;52.464;13.446;2022-12-11T03:29:21;4.03;;;3.63;;
76788;SDS011;65740;52.464;13.446;2022-12-11T03:31:54;3.60;;;3.30;;
76788;SDS011;65740;52.464;13.446;2022-12-11T03:34:31;3.70;;;3.40;;
76788;SDS011;65740;52.464;13.446;2022-12-11T03:37:05;3.83;;;3.50;;
76788;SDS011;65740;52.464;13.446;2022-12-11T03:39:34;3.97;;;3.53;;
76788;SDS011;65740;52.464;13.446;2022-12-11T03:42:06;3.50;;;3.20;;
76788;SDS011;65740;52.464;13.446;2022-12-11T03:44:34;3.60;;;3.30;;
76788;SDS011;65740;52.464;13.446;2022-12-11T03:47:00;3.33;;;3.03;;
76788;SDS011;65740;52.464;13.446;2022-12-11T03:49:28;3.63;;;3.33;;
76788;SDS011;65740;52.464;13.446;2022-12-11T03:51:58;3.70;;;3.40;;
76788;SDS011;65740;52.464;13.446;2022-12-11T03:54:25;3.50;;;3.20;;
76788;SDS011;65740;52.464;13.446;2022-12-11T03:56:52;3.80;;;3.50;;
76788;SDS011;65740;52.464;13.446;2022-12-11T03:59:21;3.17;;;2.87;;
76788;SDS011;65740;52.464;13.446;2022-12-11T04:01:46;3.53;;;3.23;;
76788;SDS011;65740;52.464;13.446;2022-12-11T04:04:12;3.97;;;3.47;;
76788;SDS011;65740;52.464;13.446;2022-12-11T04:06:38;3.80;;;3.50;;
76788;SDS011;65740;52.464;13.446;2022-12-11T04:09:03;4.00;;;3.53;;
76788;SDS011;65740;52.464;13.446;2022-12-11T04:11:29;3.67;;;3.37;;
76788;SDS011;65740;52.464;13.446;2022-12-11T04:14:04;3.93;;;3.57;;
76788;SDS011;65740;52.464;13.446;2022-12-11T04:16:50;4.20;;;3.80;;
76788;SDS011;65740;52.464;13.446;2022-12-11T04:19:16;3.00;;;2.77;;
76788;SDS011;65740;52.464;13.446;2022-12-11T04:22:00;3.70;;;3.40;;
76788;SDS011;65740;52.464;13.446;2022-12-11T04:24:46;3.40;;;3.10;;
76788;SDS011;65740;52.464;13.446;2022-12-11T04:27:13;3.43;;;3.13;;
76788;SDS011;65740;52.464;13.446;2022-12-11T04:30:19;3.40;;;3.10;;
76788;SDS011;65740;52.464;13.446;2022-12-11T04:32:52;3.37;;;3.07;;
76788;SDS011;65740;52.464;13.446;2022-12-11T04:35:18;3.40;;;3.10;;
76788;SDS011;65740;52.464;13.446;2022-12-11T04:37:44;3.77;;;3.37;;
76788;SDS011;65740;52.464;13.446;2022-12-11T04:40:12;3.10;;;2.80;;
76788;SDS011;65740;52.464;13.446;2022-12-11T04:42:40;3.20;;;2.90;;
76788;SDS011;65740;52.464;13.446;2022-12-11T04:45:06;3.27;;;2.97;;
76788;SDS011;65740;52.464;13.446;2022-12-11T04:47:33;3.40;;;3.10;;
76788;SDS011;65740;52.464;13.446;2022-12-11T04:50:00;3.30;;;3.00;;
76788;SDS011;65740;52.464;13.446;2022-12-11T04:52:26;3.43;;;3.13;;
76788;SDS011;65740;52.464;13.446;2022-12-11T04:54:55;3.33;;;3.00;;
76788;SDS011;65740;52.464;13.446;2022-12-11T04:57:21;3.33;;;3.03;;
76788;SDS011;65740;52.464;13.446;2022-12-11T04:59:46;3.30;;;3.00;;
76788;SDS011;65740;52.464;13.446;2022-12-11T05:02:12;4.10;;;3.70;;
76788;SDS011;65740;52.464;13.446;2022-12-11T05:04:38;3.13;;;2.90;;
76788;SDS011;65740;52.464;13.446;2022-12-11T05:07:04;3.40;;;3.10;;
76788;SDS011;65740;52.464;13.446;2022-12-11T05:09:29;3.23;;;2.93;;
76788;SDS011;65740;52.464;13.446;2022-12-11T05:11:55;3.53;;;3.23;;
76788;SDS011;65740;52.464;13.446;2022-12-11T05:14:20;3.17;;;2.87;;
76788;SDS011;65740;52.464;13.446;2022-12-11T05:16:46;3.70;;;3.40;;
76788;SDS011;65740;52.464;13.446;2022-12-11T05:19:12;3.30;;;3.00;;
76788;SDS011;65740;52.464;13.446;2022-12-11T05:21:38;3.30;;;3.00;;
76788;SDS011;65740;52.464;13.446;2022-12-11T05:24:04;3.20;;;2.87;;
76788;SDS011;65740;52.464;13.446;2022-12-11T05:26:30;3.23;;;2.93;;
76788;SDS011;65740;52.464;13.446;2022-12-11T05:28:55;3.33;;;3.00;;
76788;SDS011;65740;52.464;13.446;2022-12-11T05:31:22;3.03;;;2.73;;
76788;SDS011;65740;52.464;13.446;2022-12-11T05:33:49;3.40;;;3.10;;
76788;SDS011;65740;52.464;13.446;2022-12-11T05:36:17;3.23;;;2.93;;
76788;SDS011;65740;52.464;13.446;2022-12-11T05:38:48;3.40;;;3.10;;
76788;SDS011;65740;52.464;13.446;2022-12-11T05:41:15;3.30;;;3.03;;
76788;SDS011;65740;52.464;13.446;2022-12-11T05:43:42;3.20;;;3.00;;
76788;SDS011;65740;52.464;13.446;2022-12-11T05:46:09;3.20;;;3.00;;
76788;SDS011;65740;52.464;13.446;2022-12-11T05:48:55;3.97;;;3.20;;
76788;SDS011;65740;52.464;13.446;2022-12-11T05:51:22;3.63;;;3.33;;
76788;SDS011;65740;52.464;13.446;2022-12-11T05:53:48;3.30;;;3.00;;
76788;SDS011;65740;52.464;13.446;2022-12-11T05:56:17;3.40;;;3.10;;
76788;SDS011;65740;52.464;13.446;2022-12-11T05:58:44;3.20;;;2.90;;
76788;SDS011;65740;52.464;13.446;2022-12-11T06:01:15;3.17;;;2.97;;
76788;SDS011;65740;52.464;13.446;2022-12-11T06:03:42;4.10;;;3.70;;
76788;SDS011;65740;52.464;13.446;2022-12-11T06:06:08;3.63;;;3.33;;
76788;SDS011;65740;52.464;13.446;2022-12-11T06:08:34;3.70;;;3.40;;
76788;SDS011;65740;52.464;13.446;2022-12-11T06:11:00;2.93;;;2.70;;
76788;SDS011;65740;52.464;13.446;2022-12-11T06:13:26;3.73;;;3.20;;
76788;SDS011;65740;52.464;13.446;2022-12-11T06:15:52;3.63;;;3.33;;
76788;SDS011;65740;52.464;13.446;2022-12-11T06:18:17;3.30;;;3.00;;
76788;SDS011;65740;52.464;13.446;2022-12-11T06:20:43;2.93;;;2.70;;
76788;SDS011;65740;52.464;13.446;2022-12-11T06:23:09;3.50;;;3.13;;
76788;SDS011;65740;52.464;13.446;2022-12-11T06:25:36;3.53;;;3.23;;
76788;SDS011;65740;52.464;13.446;2022-12-11T06:28:03;3.47;;;3.17;;
76788;SDS011;65740;52.464;13.446;2022-12-11T06:30:28;3.27;;;3.00;;
76788;SDS011;65740;52.464;13.446;2022-12-11T06:32:54;3.20;;;2.90;;
76788;SDS011;65740;52.464;13.446;2022-12-11T06:35:21;3.60;;;3.30;;
76788;SDS011;65740;52.464;13.446;2022-12-11T06:37:47;3.10;;;2.80;;
76788;SDS011;65740;52.464;13.446;2022-12-11T06:40:13;3.37;;;3.07;;
76788;SDS011;65740;52.464;13.446;2022-12-11T06:42:38;3.60;;;3.30;;
76788;SDS011;65740;52.464;13.446;2022-12-11T06:45:04;3.77;;;3.40;;
76788;SDS011;65740;52.464;13.446;2022-12-11T06:47:30;3.23;;;2.93;;
76788;SDS011;65740;52.464;13.446;2022-12-11T06:49:57;3.50;;;3.20;;
76788;SDS011;65740;52.464;13.446;2022-12-11T06:52:23;3.30;;;3.00;;
76788;SDS011;65740;52.464;13.446;2022-12-11T06:54:49;4.10;;;3.70;;
76788;SDS011;65740;52.464;13.446;2022-12-11T06:57:15;3.40;;;3.10;;
76788;SDS011;65740;52.464;13.446;2022-12-11T06:59:42;3.50;;;3.20;;
76788;SDS011;65740;52.464;13.446;2022-12-11T07:02:11;3.20;;;2.90;;
76788;SDS011;65740;52.464;13.446;2022-12-11T07:04:38;2.80;;;2.60;;
76788;SDS011;65740;52.464;13.446;2022-12-11T07:07:04;3.47;;;3.17;;
76788;SDS011;65740;52.464;13.446;2022-12-11T07:09:30;3.47;;;3.17;;
76788;SDS011;65740;52.464;13.446;2022-12-11T07:11:56;3.10;;;2.83;;
76788;SDS011;65740;52.464;13.446;2022-12-11T07:14:22;3.70;;;3.30;;
76788;SDS011;65740;52.464;13.446;2022-12-11T07:16:47;3.53;;;3.23;;
76788;SDS011;65740;52.464;13.446;2022-12-11T07:19:13;3.03;;;2.80;;
76788;SDS011;65740;52.464;13.446;2022-12-11T07:21:39;3.70;;;3.37;;
76788;SDS011;65740;52.464;13.446;2022-12-11T07:24:05;3.23;;;3.03;;
76788;SDS011;65740;52.464;13.446;2022-12-11T07:26:31;3.30;;;3.00;;
76788;SDS011;65740;52.464;13.446;2022-12-11T07:28:56;3.73;;;3.40;;
76788;SDS011;65740;52.464;13.446;2022-12-11T07:31:23;3.57;;;3.27;;
76788;SDS011;65740;52.464;13.446;2022-12-11T07:33:58;2.87;;;2.67;;
76788;SDS011;65740;52.464;13.446;2022-12-11T07:36:25;3.50;;;3.20;;
76788;SDS011;65740;52.464;13.446;2022-12-11T07:38:52;3.10;;;2.90;;
76788;SDS011;65740;52.464;13.446;2022-12-11T07:41:18;3.37;;;3.07;;
76788;SDS011;65740;52.464;13.446;2022-12-11T07:43:44;3.90;;;3.50;;
76788;SDS011;65740;52.464;13.446;2022-12-11T07:46:11;3.40;;;3.10;;
76788;SDS011;65740;52.464;13.446;2022-12-11T07:48:39;3.50;;;3.20;;
76788;SDS011;65740;52.464;13.446;2022-12-11T07:51:09;3.73;;;3.40;;
76788;SDS011;65740;52.464;13.446;2022-12-11T07:53:36;3.50;;;3.20;;
76788;SDS011;65740;52.464;13.446;2022-12-11T07:56:02;3.63;;;3.33;;
76788;SDS011;65740;52.464;13.446;2022-12-11T07:58:28;3.70;;;3.33;;
76788;SDS011;65740;52.464;13.446;2022-12-11T08:00:54;3.87;;;3.33;;
76788;SDS011;65740;52.464;13.446;2022-12-11T08:03:20;3.40;;;3.20;;
76788;SDS011;65740;52.464;13.446;2022-12-11T08:05:47;3.17;;;2.87;;
76788;SDS011;65740;52.464;13.446;2022-12-11T08:08:14;3.50;;;3.20;;
76788;SDS011;65740;52.464;13.446;2022-12-11T08:10:40;3.50;;;3.20;;
76788;SDS011;65740;52.464;13.446;2022-12-11T08:13:05;3.17;;;2.87;;
76788;SDS011;65740;52.464;13.446;2022-12-11T08:15:31;3.37;;;3.07;;
76788;SDS011;65740;52.464;13.446;2022-12-11T08:17:57;3.00;;;2.70;;
76788;SDS011;65740;52.464;13.446;2022-12-11T08:20:23;3.67;;;3.30;;
76788;SDS011;65740;52.464;13.446;2022-12-11T08:22:49;3.60;;;3.30;;
76788;SDS011;65740;52.464;13.446;2022-12-11T08:25:14;2.90;;;2.70;;
76788;SDS011;65740;52.464;13.446;2022-12-11T08:27:40;3.33;;;3.07;;
76788;SDS011;65740;52.464;13.446;2022-12-11T08:30:06;2.93;;;2.73;;
76788;SDS011;65740;52.464;13.446;2022-12-11T08:32:33;3.97;;;3.20;;
76788;SDS011;65740;52.464;13.446;2022-12-11T08:34:59;2.90;;;2.70;;
76788;SDS011;65740;52.464;13.446;2022-12-11T08:37:24;3.30;;;3.00;;
76788;SDS011;65740;52.464;13.446;2022-12-11T08:39:50;3.40;;;2.70;;
76788;SDS011;65740;52.464;13.446;2022-12-11T08:42:15;3.40;;;3.10;;
76788;SDS011;65740;52.464;13.446;2022-12-11T08:44:41;3.03;;;2.83;;
76788;SDS011;65740;52.464;13.446;2022-12-11T08:47:07;3.73;;;2.83;;
76788;SDS011;65740;52.464;13.446;2022-12-11T08:49:34;3.63;;;3.33;;
76788;SDS011;65740;52.464;13.446;2022-12-11T08:52:01;2.97;;;2.77;;
76788;SDS011;65740;52.464;13.446;2022-12-11T08:54:28;3.97;;;3.63;;
76788;SDS011;65740;52.464;13.446;2022-12-11T08:56:53;3.13;;;2.90;;
76788;SDS011;65740;52.464;13.446;2022-12-11T08:59:19;2.90;;;2.60;;
76788;SDS011;65740;52.464;13.446;2022-12-11T09:01:45;3.07;;;2.73;;
76788;SDS011;65740;52.464;13.446;2022-12-11T09:04:10;3.23;;;2.97;;
76788;SDS011;65740;52.464;13.446;2022-12-11T09:06:36;3.10;;;2.80;;
76788;SDS011;65740;52.464;13.446;2022-12-11T09:09:02;3.50;;;3.20;;
76788;SDS011;65740;52.464;13.446;2022-12-11T09:11:29;3.63;;;3.17;;
76788;SDS011;65740;52.464;13.446;2022-12-11T09:13:57;3.27;;;2.97;;
76788;SDS011;65740;52.464;13.446;2022-12-11T09:16:24;3.30;;;3.00;;
76788;SDS011;65740;52.464;13.446;2022-12-11T09:18:51;3.43;;;3.13;;
76788;SDS011;65740;52.464;13.446;2022-12-11T09:21:19;3.40;;;2.90;;
76788;SDS011;65740;52.464;13.446;2022-12-11T09:23:46;2.87;;;2.67;;
76788;SDS011;65740;52.464;13.446;2022-12-11T09:26:13;2.97;;;2.73;;
76788;SDS011;65740;52.464;13.446;2022-12-11T09:28:41;3.23;;;2.97;;
76788;SDS011;65740;52.464;13.446;2022-12-11T09:31:17;2.77;;;2.57;;
76788;SDS011;65740;52.464;13.446;2022-12-11T09:33:48;3.70;;;3.40;;
76788;SDS011;65740;52.464;13.446;2022-12-11T09:36:14;2.90;;;2.70;;
76788;SDS011;65740;52.464;13.446;2022-12-11T09:38:40;2.80;;;2.60;;
76788;SDS011;65740;52.464;13.446;2022-12-11T09:43:47;3.20;;;2.90;;
76788;SDS011;65740;52.464;13.446;2022-12-11T09:46:31;3.00;;;2.73;;
76788;SDS011;65740;52.464;13.446;2022-12-11T09:48:58;3.33;;;3.00;;
76788;SDS011;65740;52.464;13.446;2022-12-11T09:51:28;3.10;;;2.80;;
76788;SDS011;65740;52.464;13.446;2022-12-11T09:54:00;3.03;;;2.57;;
76788;SDS011;65740;52.464;13.446;2022-12-11T10:04:54;2.90;;;2.70;;
76788;SDS011;65740;52.464;13.446;2022-12-11T10:17:38;3.40;;;3.10;;
76788;SDS011;65740;52.464;13.446;2022-12-11T10:22:36;2.70;;;2.50;;
76788;SDS011;65740;52.464;13.446;2022-12-11T10:25:04;3.10;;;2.80;;
76788;SDS011;65740;52.464;13.446;2022-12-11T10:27:33;2.83;;;2.63;;
76788;SDS011;65740;52.464;13.446;2022-12-11T10:30:18;3.00;;;2.53;;
76788;SDS011;65740;52.464;13.446;2022-12-11T10:40:47;2.93;;;2.70;;
76788;SDS011;65740;52.464;13.446;2022-12-11T10:43:15;2.70;;;2.50;;
76788;SDS011;65740;52.464;13.446;2022-12-11T10:45:53;2.67;;;2.47;;
76788;SDS011;65740;52.464;13.446;2022-12-11T10:48:19;2.80;;;2.60;;
76788;SDS011;65740;52.464;13.446;2022-12-11T10:50:54;2.57;;;2.37;;
76788;SDS011;65740;52.464;13.446;2022-12-11T10:53:25;3.07;;;2.80;;
76788;SDS011;65740;52.464;13.446;2022-12-11T10:55:52;3.20;;;2.97;;
76788;SDS011;65740;52.464;13.446;2022-12-11T10:58:19;2.50;;;2.30;;
76788;SDS011;65740;52.464;13.446;2022-12-11T11:00:56;3.40;;;3.17;;
76788;SDS011;65740;52.464;13.446;2022-12-11T11:03:32;2.90;;;2.67;;
76788;SDS011;65740;52.464;13.446;2022-12-11T11:06:04;2.47;;;2.27;;
76788;SDS011;65740;52.464;13.446;2022-12-11T11:08:37;2.93;;;2.73;;
76788;SDS011;65740;52.464;13.446;2022-12-11T11:11:05;3.00;;;2.73;;
76788;SDS011;65740;52.464;13.446;2022-12-11T11:13:43;2.60;;;2.40;;
76788;SDS011;65740;52.464;13.446;2022-12-11T11:16:11;2.73;;;2.53;;
76788;SDS011;65740;52.464;13.446;2022-12-11T11:18:39;2.17;;;1.93;;
76788;SDS011;65740;52.464;13.446;2022-12-11T11:21:14;2.70;;;2.50;;
76788;SDS011;65740;52.464;13.446;2022-12-11T11:23:42;3.00;;;2.70;;
76788;SDS011;65740;52.464;13.446;2022-12-11T11:26:08;2.50;;;2.30;;
76788;SDS011;65740;52.464;13.446;2022-12-11T11:28:39;2.77;;;2.57;;
76788;SDS011;65740;52.464;13.446;2022-12-11T11:31:12;3.10;;;2.80;;
76788;SDS011;65740;52.464;13.446;2022-12-11T11:33:56;2.70;;;2.50;;
76788;SDS011;65740;52.464;13.446;2022-12-11T11:36:25;2.40;;;2.20;;
76788;SDS011;65740;52.464;13.446;2022-12-11T11:41:48;2.70;;;2.50;;
76788;SDS011;65740;52.464;13.446;2022-12-11T11:44:15;2.83;;;2.60;;
76788;SDS011;65740;52.464;13.446;2022-12-11T11:47:02;2.43;;;2.23;;
76788;SDS011;65740;52.464;13.446;2022-12-11T11:52:20;2.60;;;2.23;;
76788;SDS011;65740;52.464;13.446;2022-12-11T11:57:38;2.70;;;2.30;;
76788;SDS011;65740;52.464;13.446;2022-12-11T12:00:17;2.77;;;2.57;;
76788;SDS011;65740;52.464;13.446;2022-12-11T12:02:48;2.57;;;2.37;;
76788;SDS011;65740;52.464;13.446;2022-12-11T12:05:22;2.97;;;2.63;;
76788;SDS011;65740;52.464;13.446;2022-12-11T12:11:00;2.30;;;2.10;;
76788;SDS011;65740;52.464;13.446;2022-12-11T12:16:23;2.87;;;2.60;;
76788;SDS011;65740;52.464;13.446;2022-12-11T12:19:20;2.80;;;2.43;;
76788;SDS011;65740;52.464;13.446;2022-12-11T12:22:29;2.90;;;2.60;;
76788;SDS011;65740;52.464;13.446;2022-12-11T12:25:21;2.50;;;2.30;;
76788;SDS011;65740;52.464;13.446;2022-12-11T12:31:05;2.93;;;2.60;;
76788;SDS011;65740;52.464;13.446;2022-12-11T12:39:01;2.77;;;2.57;;
76788;SDS011;65740;52.464;13.446;2022-12-11T12:41:41;2.77;;;2.57;;
76788;SDS011;65740;52.464;13.446;2022-12-11T12:44:21;2.70;;;2.50;;
76788;SDS011;65740;52.464;13.446;2022-12-11T12:46:56;3.13;;;2.83;;
76788;SDS011;65740;52.464;13.446;2022-12-11T12:52:00;3.07;;;2.80;;
76788;SDS011;65740;52.464;13.446;2022-12-11T12:54:26;2.60;;;2.40;;
76788;SDS011;65740;52.464;13.446;2022-12-11T12:56:55;2.73;;;2.53;;
76788;SDS011;65740;52.464;13.446;2022-12-11T12:59:23;2.30;;;2.10;;
76788;SDS011;65740;52.464;13.446;2022-12-11T13:01:52;2.43;;;2.23;;
76788;SDS011;65740;52.464;13.446;2022-12-11T13:04:34;2.43;;;2.23;;
76788;SDS011;65740;52.464;13.446;2022-12-11T13:12:40;2.67;;;2.47;;
76788;SDS011;65740;52.464;13.446;2022-12-11T13:18:01;2.70;;;2.50;;
76788;SDS011;65740;52.464;13.446;2022-12-11T13:20:30;2.20;;;2.00;;
76788;SDS011;65740;52.464;13.446;2022-12-11T13:25:31;2.40;;;2.20;;
76788;SDS011;65740;52.464;13.446;2022-12-11T13:28:20;2.23;;;1.97;;
76788;SDS011;65740;52.464;13.446;2022-12-11T13:30:56;2.83;;;2.53;;
76788;SDS011;65740;52.464;13.446;2022-12-11T13:33:25;2.80;;;2.60;;
76788;SDS011;65740;52.464;13.446;2022-12-11T13:36:35;2.70;;;2.50;;
76788;SDS011;65740;52.464;13.446;2022-12-11T13:38:49;2.40;;;2.20;;
76788;SDS011;65740;52.464;13.446;2022-12-11T13:41:20;2.30;;;2.20;;
76788;SDS011;65740;52.464;13.446;2022-12-11T13:43:47;3.00;;;2.70;;
76788;SDS011;65740;52.464;13.446;2022-12-11T13:46:18;2.30;;;2.10;;
76788;SDS011;65740;52.464;13.446;2022-12-11T13:48:49;2.40;;;2.20;;
76788;SDS011;65740;52.464;13.446;2022-12-11T13:51:26;2.87;;;2.57;;
76788;SDS011;65740;52.464;13.446;2022-12-11T13:54:11;2.57;;;2.37;;
76788;SDS011;65740;52.464;13.446;2022-12-11T13:56:38;2.77;;;2.57;;
76788;SDS011;65740;52.464;13.446;2022-12-11T13:59:04;2.50;;;2.13;;
76788;SDS011;65740;52.464;13.446;2022-12-11T14:01:31;2.70;;;2.50;;
76788;SDS011;65740;52.464;13.446;2022-12-11T14:04:01;3.00;;;2.80;;
76788;SDS011;65740;52.464;13.446;2022-12-11T14:06:32;3.20;;;2.90;;
76788;SDS011;65740;52.464;13.446;2022-12-11T14:09:00;2.87;;;2.67;;
76788;SDS011;65740;52.464;13.446;2022-12-11T14:11:35;3.43;;;2.93;;
76788;SDS011;65740;52.464;13.446;2022-12-11T14:14:05;2.70;;;2.50;;
76788;SDS011;65740;52.464;13.446;2022-12-11T14:16:38;2.63;;;2.43;;
76788;SDS011;65740;52.464;13.446;2022-12-11T14:19:05;2.80;;;2.60;;
76788;SDS011;65740;52.464;13.446;2022-12-11T14:21:32;2.47;;;2.27;;
76788;SDS011;65740;52.464;13.446;2022-12-11T14:23:59;2.47;;;2.27;;
76788;SDS011;65740;52.464;13.446;2022-12-11T14:26:30;2.60;;;2.40;;
76788;SDS011;65740;52.464;13.446;2022-12-11T14:28:58;2.20;;;2.00;;
76788;SDS011;65740;52.464;13.446;2022-12-11T14:31:38;2.77;;;2.57;;
76788;SDS011;65740;52.464;13.446;2022-12-11T14:34:14;2.77;;;2.17;;
76788;SDS011;65740;52.464;13.446;2022-12-11T14:36:47;2.60;;;2.40;;
76788;SDS011;65740;52.464;13.446;2022-12-11T14:39:24;2.43;;;2.23;;
76788;SDS011;65740;52.464;13.446;2022-12-11T14:44:37;2.40;;;2.20;;
76788;SDS011;65740;52.464;13.446;2022-12-11T14:47:11;2.50;;;2.30;;
76788;SDS011;65740;52.464;13.446;2022-12-11T14:52:22;2.60;;;2.40;;
76788;SDS011;65740;52.464;13.446;2022-12-11T14:55:00;3.10;;;2.80;;
76788;SDS011;65740;52.464;13.446;2022-12-11T14:57:39;3.03;;;2.67;;
76788;SDS011;65740;52.464;13.446;2022-12-11T15:00:19;2.70;;;2.33;;
76788;SDS011;65740;52.464;13.446;2022-12-11T15:03:00;2.20;;;2.10;;
76788;SDS011;65740;52.464;13.446;2022-12-11T15:05:29;2.70;;;2.50;;
76788;SDS011;65740;52.464;13.446;2022-12-11T15:10:32;2.60;;;2.40;;
76788;SDS011;65740;52.464;13.446;2022-12-11T15:13:00;2.60;;;2.40;;
76788;SDS011;65740;52.464;13.446;2022-12-11T15:15:27;2.40;;;2.20;;
76788;SDS011;65740;52.464;13.446;2022-12-11T15:17:55;4.10;;;2.87;;
76788;SDS011;65740;52.464;13.446;2022-12-11T15:20:28;2.73;;;2.23;;
76788;SDS011;65740;52.464;13.446;2022-12-11T15:22:56;2.77;;;2.13;;
76788;SDS011;65740;52.464;13.446;2022-12-11T15:25:25;4.03;;;2.47;;
76788;SDS011;65740;52.464;13.446;2022-12-11T15:27:53;3.30;;;2.67;;
76788;SDS011;65740;52.464;13.446;2022-12-11T15:33:00;3.20;;;2.90;;
76788;SDS011;65740;52.464;13.446;2022-12-11T15:35:50;3.47;;;2.53;;
76788;SDS011;65740;52.464;13.446;2022-12-11T15:38:30;5.17;;;3.07;;
76788;SDS011;65740;52.464;13.446;2022-12-11T15:41:10;3.03;;;2.73;;
76788;SDS011;65740;52.464;13.446;2022-12-11T15:43:38;3.87;;;2.60;;
76788;SDS011;65740;52.464;13.446;2022-12-11T15:46:04;3.77;;;2.23;;
76788;SDS011;65740;52.464;13.446;2022-12-11T15:48:30;2.50;;;2.30;;
76788;SDS011;65740;52.464;13.446;2022-12-11T15:50:56;3.20;;;2.50;;
76788;SDS011;65740;52.464;13.446;2022-12-11T15:53:22;4.17;;;2.80;;
76788;SDS011;65740;52.464;13.446;2022-12-11T15:55:48;2.77;;;2.40;;
76788;SDS011;65740;52.464;13.446;2022-12-11T15:58:16;3.00;;;2.57;;
76788;SDS011;65740;52.464;13.446;2022-12-11T16:00:44;2.27;;;2.00;;
76788;SDS011;65740;52.464;13.446;2022-12-11T16:03:13;2.57;;;2.37;;
76788;SDS011;65740;52.464;13.446;2022-12-11T16:05:41;3.03;;;2.73;;
76788;SDS011;65740;52.464;13.446;2022-12-11T16:08:15;4.27;;;2.30;;
76788;SDS011;65740;52.464;13.446;2022-12-11T16:10:43;4.30;;;2.47;;
76788;SDS011;65740;52.464;13.446;2022-12-11T16:13:10;3.40;;;2.57;;
76788;SDS011;65740;52.464;13.446;2022-12-11T16:15:39;2.73;;;2.47;;
76788;SDS011;65740;52.464;13.446;2022-12-11T16:18:08;3.93;;;2.70;;
76788;SDS011;65740;52.464;13.446;2022-12-11T16:20:38;2.70;;;2.33;;
76788;SDS011;65740;52.464;13.446;2022-12-11T16:23:05;3.57;;;2.50;;
76788;SDS011;65740;52.464;13.446;2022-12-11T16:25:31;3.57;;;2.50;;
76788;SDS011;65740;52.464;13.446;2022-12-11T16:27:58;6.47;;;2.60;;